createdAt,value
2019-04-03T00:00:41.435Z,10.90
2019-04-03T00:10:53.384Z,10.91
2019-04-03T00:13:21.740Z,10.82
2019-04-03T00:15:51.062Z,10.73
2019-04-03T00:18:19.445Z,10.83
2019-04-03T00:20:48.671Z,11.02
2019-04-03T00:23:16.209Z,11.02
2019-04-03T00:25:45.545Z,11.12
2019-04-03T00:28:13.910Z,11.12
2019-04-03T00:35:51.708Z,11.16
2019-04-03T00:38:19.312Z,11.07
2019-04-03T00:40:47.629Z,10.95
2019-04-03T00:43:15.964Z,10.70
2019-04-03T00:45:45.286Z,10.48
2019-04-03T00:50:48.770Z,10.27
2019-04-03T00:53:17.096Z,10.23
2019-04-03T01:06:03.049Z,10.83
2019-04-03T01:08:32.873Z,10.58
2019-04-03T01:13:37.840Z,10.35
2019-04-03T01:16:06.378Z,10.16
2019-04-03T01:18:35.136Z,10.00
2019-04-03T01:21:02.784Z,9.90
2019-04-03T01:23:31.514Z,9.97
2019-04-03T01:25:59.952Z,10.04
2019-04-03T01:28:28.336Z,10.28
2019-04-03T01:30:56.786Z,10.45
2019-04-03T01:33:24.997Z,10.45
2019-04-03T01:35:53.356Z,10.42
2019-04-03T01:38:21.843Z,10.25
2019-04-03T01:40:51.173Z,10.01
2019-04-03T01:43:19.436Z,9.84
2019-04-03T01:45:47.795Z,9.78
2019-04-03T01:48:16.140Z,9.70
2019-04-03T01:50:45.416Z,9.59
2019-04-03T01:55:48.011Z,9.48
2019-04-03T01:58:16.388Z,9.46
2019-04-03T02:00:44.805Z,9.35
2019-04-03T02:03:14.068Z,9.39
2019-04-03T02:08:16.584Z,9.39
2019-04-03T02:10:45.399Z,9.31
2019-04-03T02:13:13.598Z,9.17
2019-04-03T02:15:41.868Z,9.13
2019-04-03T02:18:10.204Z,9.02
2019-04-03T02:20:39.583Z,9.02
2019-04-03T02:23:07.892Z,9.09
2019-04-03T02:25:36.879Z,8.95
2019-04-03T02:28:05.132Z,9.00
2019-04-03T02:30:34.126Z,8.99
2019-04-03T02:33:02.459Z,8.92
2019-04-03T02:35:31.374Z,8.89
2019-04-03T02:37:59.684Z,8.82
2019-04-03T02:40:31.481Z,8.93
2019-04-03T02:42:56.862Z,8.95
2019-04-03T02:45:25.152Z,8.94
2019-04-03T02:47:54.716Z,8.98
2019-04-03T02:50:24.312Z,8.96
2019-04-03T02:55:26.849Z,9.09
2019-04-03T02:57:55.306Z,9.06
2019-04-03T03:00:23.802Z,9.10
2019-04-03T03:02:51.958Z,9.12
2019-04-03T03:05:20.365Z,9.05
2019-04-03T03:07:48.712Z,9.06
2019-04-03T03:10:19.477Z,9.06
2019-04-03T03:12:45.416Z,9.07
2019-04-03T03:15:13.781Z,9.01
2019-04-03T03:17:42.188Z,9.00
2019-04-03T03:22:44.790Z,8.90
2019-04-03T03:27:47.498Z,9.14
2019-04-03T03:30:41.836Z,9.06
2019-04-03T03:32:45.207Z,9.12
2019-04-03T03:35:18.201Z,9.08
2019-04-03T03:37:41.791Z,8.97
2019-04-03T03:40:10.221Z,8.81
2019-04-03T03:42:38.402Z,8.68
2019-04-03T03:45:06.774Z,8.52
2019-04-03T03:47:36.475Z,8.37
2019-04-03T03:50:04.331Z,8.28
2019-04-03T03:52:38.179Z,8.27
2019-04-03T03:55:05.312Z,8.23
2019-04-03T03:57:37.961Z,8.23
2019-04-03T04:00:03.343Z,7.47
2019-04-03T04:02:36.480Z,7.46
2019-04-03T04:05:03.045Z,7.28
2019-04-03T04:07:35.737Z,6.67
2019-04-03T04:10:02.402Z,6.32
2019-04-03T04:12:30.783Z,6.41
2019-04-03T04:14:58.939Z,6.40
2019-04-03T04:17:27.284Z,6.43
2019-04-03T04:19:55.641Z,6.54
2019-04-03T04:22:26.695Z,6.60
2019-04-03T04:24:52.448Z,6.59
2019-04-03T04:27:21.164Z,6.42
2019-04-03T04:29:49.242Z,6.36
2019-04-03T04:32:17.843Z,6.34
2019-04-03T04:34:49.250Z,6.47
2019-04-03T04:37:15.787Z,6.58
2019-04-03T04:39:44.306Z,6.73
2019-04-03T04:42:12.413Z,6.90
2019-04-03T04:44:41.576Z,7.02
2019-04-03T04:47:09.350Z,7.12
2019-04-03T04:49:37.769Z,7.21
2019-04-03T04:52:06.088Z,7.34
2019-04-03T04:54:37.119Z,7.32
2019-04-03T04:57:05.428Z,7.42
2019-04-03T04:59:37.064Z,7.42
2019-04-03T05:02:05.133Z,7.56
2019-04-03T05:04:36.839Z,7.31
2019-04-03T05:07:05.236Z,7.41
2019-04-03T05:09:36.620Z,7.46
2019-04-03T05:12:04.822Z,7.40
2019-04-03T05:14:35.531Z,7.43
2019-04-03T05:17:04.040Z,7.53
2019-04-03T05:19:34.908Z,7.61
2019-04-03T05:22:03.231Z,7.66
2019-04-03T05:24:33.030Z,7.75
2019-04-03T05:27:03.270Z,7.86
2019-04-03T05:29:30.393Z,7.92
2019-04-03T05:31:59.158Z,8.05
2019-04-03T05:34:27.513Z,8.17
2019-04-03T05:36:56.002Z,8.29
2019-04-03T05:39:24.709Z,8.42
2019-04-03T05:41:54.231Z,8.49
2019-04-03T05:44:23.726Z,8.49
2019-04-03T05:46:50.988Z,8.55
2019-04-03T05:49:19.699Z,8.53
2019-04-03T05:53:53.811Z,8.47
2019-04-03T05:56:20.424Z,8.69
2019-04-03T05:58:55.468Z,8.88
2019-04-03T06:01:17.041Z,8.98
2019-04-03T06:03:45.853Z,9.03
2019-04-03T06:06:14.426Z,9.24
2019-04-03T06:08:42.285Z,9.14
2019-04-03T06:13:47.480Z,9.63
2019-04-03T06:16:15.976Z,9.78
2019-04-03T06:18:42.529Z,10.00
2019-04-03T06:23:45.205Z,9.86
2019-04-03T06:26:14.517Z,10.16
2019-04-03T06:28:46.676Z,10.34
2019-04-03T06:31:12.287Z,10.14
2019-04-03T06:33:40.642Z,10.26
2019-04-03T06:36:09.073Z,10.70
2019-04-03T06:38:37.750Z,10.67
2019-04-03T06:41:07.919Z,10.57
2019-04-03T06:43:34.244Z,10.85
2019-04-03T06:46:02.557Z,11.13
2019-04-03T06:48:30.923Z,11.58
2019-04-03T06:50:59.309Z,11.94
2019-04-03T06:56:01.889Z,12.16
2019-04-03T06:58:38.016Z,12.13
2019-04-03T07:03:35.088Z,12.34
2019-04-03T07:06:03.440Z,12.32
2019-04-03T07:08:35.667Z,12.63
2019-04-03T07:11:00.046Z,12.63
2019-04-03T07:13:30.012Z,12.44
2019-04-03T07:15:57.349Z,12.74
2019-04-03T07:18:25.971Z,13.03
2019-04-03T07:20:54.061Z,13.32
2019-04-03T07:23:22.400Z,13.38
2019-04-03T07:25:51.093Z,13.57
2019-04-03T07:28:19.428Z,13.50
2019-04-03T07:30:47.821Z,13.54
2019-04-03T07:33:16.508Z,13.73
2019-04-03T07:38:19.760Z,13.87
2019-04-03T07:43:21.571Z,13.98
2019-04-03T07:45:49.921Z,13.95
2019-04-03T07:48:18.272Z,14.14
2019-04-03T07:50:46.630Z,13.82
2019-04-03T07:53:15.992Z,13.75
2019-04-03T07:55:45.388Z,13.88
2019-04-03T07:58:13.768Z,13.99
2019-04-03T08:00:43.097Z,14.10
2019-04-03T08:03:11.446Z,14.35
2019-04-03T08:05:39.841Z,14.44
2019-04-03T08:08:08.465Z,14.59
2019-04-03T08:10:37.770Z,14.82
2019-04-03T08:13:06.480Z,14.89
2019-04-03T08:15:33.423Z,15.39
2019-04-03T08:20:36.142Z,15.72
2019-04-03T08:23:05.666Z,15.92
2019-04-03T08:25:33.209Z,15.97
2019-04-03T08:28:01.351Z,16.03
2019-04-03T08:33:15.269Z,16.31
2019-04-03T08:35:35.751Z,17.00
2019-04-03T08:38:01.741Z,17.04
2019-04-03T08:40:30.108Z,17.43
2019-04-03T08:45:38.403Z,16.76
2019-04-03T08:48:07.124Z,17.23
2019-04-03T08:50:34.828Z,17.99
2019-04-03T08:53:03.185Z,18.35
2019-04-03T08:55:31.817Z,18.25
2019-04-03T08:57:59.933Z,18.89
2019-04-03T09:00:31.392Z,19.13
2019-04-03T09:05:31.148Z,20.32
2019-04-03T09:07:59.826Z,22.43
2019-04-03T09:10:27.854Z,21.38
2019-04-03T09:12:56.433Z,23.52
2019-04-03T09:17:59.419Z,27.94
2019-04-03T09:23:02.078Z,29.46
2019-04-03T09:25:31.605Z,30.32
2019-04-03T09:27:59.723Z,28.44
2019-04-03T09:30:28.180Z,28.15
2019-04-03T09:32:59.383Z,27.64
2019-04-03T09:35:25.028Z,26.52
2019-04-03T09:37:53.438Z,28.18
2019-04-03T09:40:21.804Z,30.59
2019-04-03T09:42:51.578Z,27.46
2019-04-03T09:45:19.568Z,25.15
2019-04-03T09:50:22.990Z,25.85
2019-04-03T09:52:50.834Z,30.67
2019-04-03T09:55:19.016Z,32.62
2019-04-03T09:57:47.737Z,31.26
2019-04-03T10:00:16.193Z,33.46
2019-04-03T10:02:44.422Z,30.09
2019-04-03T10:05:12.764Z,29.10
2019-04-03T10:07:41.121Z,32.29
2019-04-03T10:12:47.307Z,28.02
2019-04-03T10:15:12.155Z,31.39
2019-04-03T10:17:40.610Z,32.58
2019-04-03T10:20:09.114Z,29.32
2019-04-03T10:22:37.456Z,32.24
2019-04-03T10:27:43.547Z,31.35
2019-04-03T10:30:10.100Z,32.10
2019-04-03T10:32:38.547Z,34.18
2019-04-03T10:35:08.236Z,34.79
2019-04-03T10:37:36.652Z,35.13
2019-04-03T10:40:05.925Z,34.48
2019-04-03T10:42:34.649Z,33.81
2019-04-03T10:45:02.750Z,34.98
2019-04-03T10:47:41.318Z,32.55
2019-04-03T10:49:59.669Z,33.11
2019-04-03T10:52:27.841Z,33.41
2019-04-03T10:54:58.210Z,35.16
2019-04-03T10:57:27.540Z,35.84
2019-04-03T10:59:55.901Z,34.40
2019-04-03T11:02:24.389Z,34.67
2019-04-03T11:04:53.581Z,34.56
2019-04-03T11:09:56.396Z,35.16
2019-04-03T11:12:24.763Z,29.08
2019-04-03T11:14:53.157Z,29.73
2019-04-03T11:17:21.482Z,35.68
2019-04-03T11:19:49.904Z,37.69
2019-04-03T11:22:18.264Z,35.51
2019-04-03T11:24:46.613Z,34.84
2019-04-03T11:27:15.325Z,35.40
2019-04-03T11:29:43.455Z,35.51
2019-04-03T11:32:11.937Z,36.19
2019-04-03T11:34:40.375Z,36.10
2019-04-03T11:37:08.791Z,31.17
2019-04-03T11:42:24.189Z,34.27
2019-04-03T11:44:42.850Z,36.75
2019-04-03T11:47:13.062Z,31.14
2019-04-03T11:49:39.674Z,29.41
2019-04-03T11:52:08.404Z,31.52
2019-04-03T11:54:38.865Z,31.27
2019-04-03T11:57:04.856Z,29.66
2019-04-03T11:59:33.257Z,28.31
2019-04-03T12:02:01.647Z,27.00
2019-04-03T12:04:30.197Z,30.24
2019-04-03T12:06:58.643Z,33.01
2019-04-03T12:09:26.698Z,34.36
2019-04-03T12:11:55.561Z,28.41
2019-04-03T12:14:23.688Z,33.60
2019-04-03T12:16:51.834Z,35.44
2019-04-03T12:19:20.942Z,35.70
2019-04-03T12:21:50.851Z,33.37
2019-04-03T12:24:17.672Z,34.33
2019-04-03T12:26:46.088Z,29.27
2019-04-03T12:29:14.451Z,25.97
2019-04-03T12:31:43.809Z,25.31
2019-04-03T12:34:12.152Z,27.69
2019-04-03T12:36:40.533Z,28.84
2019-04-03T12:39:09.852Z,30.81
2019-04-03T12:41:38.219Z,28.53
2019-04-03T12:44:06.854Z,28.74
2019-04-03T12:46:36.457Z,31.60
2019-04-03T12:51:39.969Z,30.20
2019-04-03T12:54:08.372Z,26.67
2019-04-03T12:56:37.054Z,28.67
2019-04-03T12:59:07.420Z,26.74
2019-04-03T13:01:33.612Z,24.05
2019-04-03T13:04:01.975Z,24.19
2019-04-03T13:06:30.326Z,24.27
2019-04-03T13:08:58.672Z,25.26
2019-04-03T13:11:27.025Z,26.59
2019-04-03T13:13:55.376Z,23.86
2019-04-03T13:16:24.718Z,22.67
2019-04-03T13:18:53.192Z,22.60
2019-04-03T13:21:21.539Z,21.93
2019-04-03T13:23:49.904Z,21.66
2019-04-03T13:26:18.553Z,21.70
2019-04-03T13:31:20.973Z,21.66
2019-04-03T13:33:49.343Z,20.92
2019-04-03T13:36:18.748Z,20.94
2019-04-03T13:38:46.094Z,21.35
2019-04-03T13:41:15.749Z,21.16
2019-04-03T13:43:43.860Z,20.67
2019-04-03T13:48:48.337Z,20.79
2019-04-03T13:51:16.708Z,20.30
2019-04-03T13:53:45.390Z,20.24
2019-04-03T13:56:13.451Z,20.19
2019-04-03T14:03:51.439Z,20.48
2019-04-03T14:06:18.892Z,20.72
2019-04-03T14:13:56.295Z,22.58
2019-04-03T14:18:58.799Z,22.38
2019-04-03T14:21:27.763Z,22.57
2019-04-03T14:23:55.789Z,22.54
2019-04-03T14:26:24.128Z,21.63
2019-04-03T14:31:34.299Z,21.51
2019-04-03T14:36:30.616Z,21.76
2019-04-03T14:38:58.983Z,21.68
2019-04-03T14:41:27.647Z,22.01
2019-04-03T14:49:09.277Z,21.35
2019-04-03T14:51:37.623Z,21.38
2019-04-03T14:54:08.241Z,21.73
2019-04-03T14:56:35.128Z,21.81
2019-04-03T14:59:03.610Z,21.19
2019-04-03T15:14:23.561Z,20.03
2019-04-03T15:19:30.171Z,19.64
2019-04-03T15:22:01.307Z,19.55
2019-04-03T15:24:26.843Z,19.79
2019-04-03T15:26:55.109Z,19.83
2019-04-03T15:29:23.240Z,19.73
2019-04-03T15:31:51.610Z,19.79
2019-04-03T15:36:54.421Z,19.41
2019-04-03T15:39:22.793Z,19.31
2019-04-03T15:41:51.109Z,19.16
2019-04-03T15:44:20.987Z,19.16
2019-04-03T15:49:22.210Z,19.08
2019-04-03T15:51:50.524Z,19.01
2019-04-03T15:54:19.178Z,19.05
2019-04-03T15:56:47.528Z,18.99
2019-04-03T15:59:15.894Z,18.96
2019-04-03T16:04:18.625Z,18.88
2019-04-03T16:06:47.351Z,18.64
2019-04-03T16:09:18.336Z,18.40
2019-04-03T16:11:43.830Z,18.16
2019-04-03T16:14:12.473Z,18.28
2019-04-03T16:16:40.500Z,18.32
2019-04-03T16:19:10.986Z,18.21
2019-04-03T16:21:37.588Z,18.26
2019-04-03T16:26:43.297Z,18.07
2019-04-03T16:34:20.135Z,17.97
2019-04-03T16:36:49.708Z,17.83
2019-04-03T16:41:51.176Z,17.83
2019-04-03T16:44:19.518Z,17.80
2019-04-03T16:46:47.970Z,17.68
2019-04-03T16:49:16.571Z,17.66
2019-04-03T16:51:44.747Z,17.47
2019-04-03T16:54:13.033Z,17.50
2019-04-03T16:56:41.640Z,17.45
2019-04-03T17:01:47.145Z,17.49
2019-04-03T17:04:25.637Z,17.37
2019-04-03T17:06:45.022Z,17.33
2019-04-03T17:09:12.622Z,17.22
2019-04-03T17:11:43.507Z,17.26
2019-04-03T17:14:09.016Z,17.24
2019-04-03T17:19:11.428Z,17.13
2019-04-03T17:21:40.256Z,17.03
2019-04-03T17:24:08.542Z,16.87
2019-04-03T17:26:48.356Z,16.74
2019-04-03T17:29:06.182Z,16.62
2019-04-03T17:31:34.184Z,16.51
2019-04-03T17:34:02.420Z,16.41
2019-04-03T17:36:30.549Z,16.28
2019-04-03T17:38:58.948Z,16.16
2019-04-03T17:41:30.293Z,16.04
2019-04-03T17:43:55.668Z,15.97
2019-04-03T17:46:24.131Z,16.00
2019-04-03T17:48:55.271Z,15.88
2019-04-03T17:51:21.849Z,15.79
2019-04-03T17:53:50.268Z,15.83
2019-04-03T17:56:18.673Z,15.81
2019-04-03T17:58:47.994Z,15.69
2019-04-03T18:01:15.490Z,15.64
2019-04-03T18:03:43.905Z,15.57
2019-04-03T18:08:47.576Z,15.38
2019-04-03T18:11:15.905Z,15.31
2019-04-03T18:16:18.469Z,14.94
2019-04-03T18:18:49.656Z,14.90
2019-04-03T18:21:17.089Z,14.80
2019-04-03T18:26:17.896Z,14.82
2019-04-03T18:28:46.421Z,14.70
2019-04-03T18:33:50.115Z,14.74
2019-04-03T18:36:18.443Z,14.64
2019-04-03T18:38:46.859Z,14.49
2019-04-03T18:43:49.456Z,14.43
2019-04-03T18:49:00.950Z,14.36
2019-04-03T18:51:25.396Z,14.15
2019-04-03T18:56:28.139Z,14.21
2019-04-03T18:58:56.619Z,14.20
2019-04-03T19:01:24.975Z,14.15
2019-04-03T19:03:53.357Z,14.05
2019-04-03T19:08:56.013Z,13.95
2019-04-03T19:11:24.347Z,13.89
2019-04-03T19:13:52.700Z,13.94
2019-04-03T19:16:29.435Z,13.86
2019-04-03T19:18:49.392Z,13.73
2019-04-03T19:26:26.300Z,13.72
2019-04-03T19:31:28.985Z,13.56
2019-04-03T19:36:31.662Z,13.00
2019-04-03T19:39:00.978Z,12.77
2019-04-03T19:44:03.582Z,11.78
2019-04-03T19:46:32.926Z,11.20
2019-04-03T19:49:02.346Z,10.44
2019-04-03T19:51:31.684Z,9.90
2019-04-03T19:54:00.062Z,9.40
2019-04-03T19:59:04.884Z,8.75
2019-04-03T20:01:31.001Z,8.58
2019-04-03T20:03:59.352Z,8.42
2019-04-03T20:09:01.965Z,7.99
2019-04-03T20:11:30.288Z,7.83
2019-04-03T20:13:59.638Z,7.73
2019-04-03T20:16:28.012Z,7.56
2019-04-03T20:18:56.878Z,7.42
2019-04-03T20:26:33.219Z,7.40
2019-04-03T20:29:02.232Z,7.43
2019-04-03T20:31:29.909Z,7.52
2019-04-03T20:36:32.479Z,7.60
2019-04-03T20:39:00.821Z,7.32
2019-04-03T20:46:37.933Z,7.23
2019-04-03T20:49:07.198Z,7.41
2019-04-03T20:51:35.588Z,7.22
2019-04-03T20:59:12.393Z,7.27
2019-04-03T21:01:41.654Z,7.20
2019-04-03T21:04:09.993Z,7.16
2019-04-03T21:06:38.773Z,7.05
2019-04-03T21:11:42.389Z,7.05
2019-04-03T21:14:11.392Z,7.09
2019-04-03T21:16:39.444Z,7.19
2019-04-03T21:19:07.779Z,7.09
2019-04-03T21:21:36.120Z,7.14
2019-04-03T21:24:04.678Z,7.12
2019-04-03T21:26:32.887Z,7.14
2019-04-03T21:29:01.237Z,7.05
2019-04-03T21:31:29.568Z,6.96
2019-04-03T21:33:57.966Z,6.77
2019-04-03T21:39:02.599Z,6.65
2019-04-03T21:41:31.857Z,6.60
2019-04-03T21:44:00.539Z,6.75
2019-04-03T21:46:28.549Z,6.67
2019-04-03T21:48:57.856Z,6.52
2019-04-03T21:51:27.279Z,6.53
2019-04-03T21:53:56.435Z,6.51
2019-04-03T21:56:23.980Z,6.47
2019-04-03T21:58:52.320Z,6.62
2019-04-03T22:01:20.713Z,6.48
2019-04-03T22:03:51.484Z,6.42
2019-04-03T22:06:17.409Z,6.49
2019-04-03T22:08:45.769Z,6.35
2019-04-03T22:11:14.113Z,6.04
2019-04-03T22:13:42.468Z,5.95
2019-04-03T22:16:11.153Z,5.83
2019-04-03T22:18:40.403Z,5.80
2019-04-03T22:21:08.783Z,5.62
2019-04-03T22:23:37.199Z,5.61
2019-04-03T22:26:05.500Z,5.48
2019-04-03T22:28:33.849Z,5.40
2019-04-03T22:31:02.183Z,5.35
2019-04-03T22:33:30.884Z,5.35
2019-04-03T22:36:01.309Z,5.35
2019-04-03T22:38:28.860Z,5.40
2019-04-03T22:40:57.233Z,5.60
2019-04-03T22:43:26.516Z,5.65
2019-04-03T22:45:54.879Z,5.81
2019-04-03T22:48:26.780Z,5.68
2019-04-03T22:50:51.742Z,5.58
2019-04-03T22:53:20.133Z,5.58
2019-04-03T22:55:49.114Z,5.57
2019-04-03T22:58:19.020Z,5.63
2019-04-03T23:00:45.884Z,5.63
2019-04-03T23:03:14.284Z,5.66
2019-04-03T23:05:42.633Z,5.62
2019-04-03T23:08:10.991Z,5.48
2019-04-03T23:13:13.753Z,5.22
2019-04-03T23:15:43.422Z,5.24
2019-04-03T23:18:13.995Z,5.12
2019-04-03T23:20:42.200Z,4.89
2019-04-03T23:23:11.476Z,4.82
2019-04-03T23:25:40.656Z,4.63
2019-04-03T23:28:09.012Z,4.52
2019-04-03T23:30:37.377Z,4.40
2019-04-03T23:33:05.719Z,4.33
2019-04-03T23:35:34.067Z,4.27
2019-04-03T23:38:02.510Z,4.15
2019-04-03T23:43:08.959Z,4.00
2019-04-03T23:45:36.530Z,4.00
2019-04-03T23:48:04.876Z,3.96
2019-04-03T23:50:33.236Z,4.03
2019-04-03T23:53:02.628Z,3.86
2019-04-03T23:55:30.989Z,3.71
2019-04-03T23:57:59.397Z,3.57
